Time;durP1;ratioP1;P1;durP2;ratioP2;P2;SDS_P1;SDS_P2;PMS_P1;PMS_P2;Temp;Humidity;BMP_temperature;BMP_pressure;BME280_temperature;BME280_humidity;BME280_pressure;Samples;Min_cycle;Max_cycle;Signal;HPM_P1;HPM_P2
2021/09/25 00:01:10;;;;;;;13.98;8.98;;;11.20;99.90;;;;;;1868400;76;21470;-74
2021/09/25 00:03:36;;;;;;;14.25;8.23;;;11.20;99.90;;;;;;1868552;76;21488;-74
2021/09/25 00:06:02;;;;;;;10.53;8.20;;;11.20;99.90;;;;;;1867011;76;21500;-74
2021/09/25 00:08:28;;;;;;;9.15;7.37;;;11.20;99.90;;;;;;1863452;75;21545;-74
2021/09/25 00:10:54;;;;;;;9.33;7.47;;;11.00;99.90;;;;;;1859947;76;21429;-74
2021/09/25 00:13:21;;;;;;;8.58;7.58;;;11.00;99.90;;;;;;1858574;76;21091;-74
2021/09/25 00:15:47;;;;;;;10.63;8.13;;;11.10;99.90;;;;;;1858710;76;21210;-74
2021/09/25 00:18:13;;;;;;;10.78;8.45;;;10.90;99.90;;;;;;1867885;75;21166;-75
2021/09/25 00:20:39;;;;;;;16.85;8.93;;;10.90;99.90;;;;;;1854223;76;21062;-74
2021/09/25 00:23:05;;;;;;;12.03;8.40;;;11.00;99.90;;;;;;1868589;75;21080;-74
2021/09/25 00:25:31;;;;;;;11.63;9.58;;;11.00;99.90;;;;;;1863630;76;21088;-76
2021/09/25 00:27:57;;;;;;;11.38;8.48;;;11.00;99.90;;;;;;1858178;76;21101;-74
2021/09/25 00:30:23;;;;;;;13.93;9.40;;;11.00;99.90;;;;;;1854111;76;21092;-74
2021/09/25 00:32:51;;;;;;;10.78;9.35;;;10.90;99.90;;;;;;1856683;76;21140;-73
2021/09/25 00:35:17;;;;;;;14.63;8.93;;;10.90;99.90;;;;;;1860096;76;21120;-75
2021/09/25 00:37:43;;;;;;;12.78;9.25;;;10.90;99.90;;;;;;1868587;76;21057;-74
2021/09/25 00:40:09;;;;;;;10.85;9.03;;;10.90;99.90;;;;;;1863413;76;21143;-74
2021/09/25 00:42:36;;;;;;;14.03;9.30;;;10.90;99.90;;;;;;1858636;76;21280;-74
2021/09/25 00:45:02;;;;;;;14.33;9.13;;;10.90;99.90;;;;;;1853590;76;21144;-73
2021/09/25 00:47:28;;;;;;;13.93;8.40;;;10.90;99.90;;;;;;1858725;76;21086;-74
2021/09/25 00:49:54;;;;;;;9.80;7.40;;;10.80;99.90;;;;;;1858248;76;21162;-74
2021/09/25 00:52:20;;;;;;;11.28;7.85;;;10.70;99.90;;;;;;1863685;76;21084;-75
2021/09/25 00:54:46;;;;;;;13.58;9.13;;;10.70;99.90;;;;;;1868491;76;21135;-74
2021/09/25 00:57:12;;;;;;;9.98;8.33;;;10.70;99.90;;;;;;1858660;76;21158;-74
2021/09/25 00:59:38;;;;;;;14.20;9.10;;;10.70;99.90;;;;;;1853775;76;21166;-73
2021/09/25 01:02:05;;;;;;;13.88;9.43;;;10.60;99.90;;;;;;1863572;76;21085;-74
2021/09/25 01:04:32;;;;;;;13.28;9.58;;;10.60;99.90;;;;;;1854726;76;21084;-73
2021/09/25 01:06:58;;;;;;;13.53;9.73;;;10.60;99.90;;;;;;1867210;76;21104;-74
2021/09/25 01:09:24;;;;;;;14.33;9.40;;;10.60;99.90;;;;;;1863417;76;21092;-74
2021/09/25 01:11:50;;;;;;;12.82;9.93;;;10.60;99.90;;;;;;1870294;75;21202;-74
2021/09/25 01:14:16;;;;;;;14.70;9.80;;;10.60;99.90;;;;;;1858499;76;21158;-74
2021/09/25 01:16:42;;;;;;;12.47;8.73;;;10.60;99.90;;;;;;1858662;75;21088;-74
2021/09/25 01:19:08;;;;;;;11.05;8.68;;;10.60;99.90;;;;;;1861377;75;21093;-74
2021/09/25 01:21:35;;;;;;;12.55;9.70;;;10.50;99.90;;;;;;1856042;75;21089;-74
2021/09/25 01:24:01;;;;;;;10.95;8.25;;;10.40;99.90;;;;;;1856031;76;21104;-74
2021/09/25 01:26:27;;;;;;;10.58;8.00;;;10.40;99.90;;;;;;1858490;76;21157;-74
2021/09/25 01:28:53;;;;;;;11.15;8.18;;;10.40;99.90;;;;;;1858626;76;21092;-74
2021/09/25 01:31:19;;;;;;;11.35;8.35;;;10.40;99.90;;;;;;1876503;75;21563;-74
2021/09/25 01:33:45;;;;;;;13.98;8.88;;;10.40;99.90;;;;;;1855552;76;21503;-74
2021/09/25 01:36:11;;;;;;;11.48;8.38;;;10.40;99.90;;;;;;1855262;77;21085;-73
2021/09/25 01:38:38;;;;;;;11.90;8.90;;;10.40;99.90;;;;;;1859340;76;21092;-74
2021/09/25 01:41:04;;;;;;;11.48;8.78;;;10.40;99.90;;;;;;1858123;76;21100;-74
2021/09/25 01:43:30;;;;;;;11.80;8.78;;;10.30;99.90;;;;;;1859357;76;21191;-74
2021/09/25 01:45:56;;;;;;;10.08;8.28;;;10.30;99.90;;;;;;1867894;75;21610;-73
2021/09/25 01:48:22;;;;;;;12.07;8.25;;;10.30;99.90;;;;;;1858980;76;21492;-74
2021/09/25 01:50:50;;;;;;;12.33;8.40;;;10.20;99.90;;;;;;1868345;76;21513;-74
2021/09/25 01:53:16;;;;;;;15.08;8.40;;;10.20;99.90;;;;;;1858683;76;21148;-74
2021/09/25 01:55:42;;;;;;;11.00;8.55;;;10.20;99.90;;;;;;1858736;76;21158;-74
2021/09/25 01:58:08;;;;;;;12.50;8.80;;;10.20;99.90;;;;;;1862751;76;21158;-74
2021/09/25 02:00:34;;;;;;;12.28;8.28;;;10.20;99.90;;;;;;1868422;76;21162;-74
2021/09/25 02:03:01;;;;;;;12.63;8.50;;;10.20;99.90;;;;;;1859746;75;21088;-75
2021/09/25 02:05:27;;;;;;;11.15;8.55;;;10.20;99.90;;;;;;1867279;76;21100;-74
2021/09/25 02:07:53;;;;;;;14.63;8.43;;;10.20;99.90;;;;;;1873266;76;21173;-74
2021/09/25 02:10:19;;;;;;;12.43;8.70;;;10.10;99.90;;;;;;1868352;75;21065;-74
2021/09/25 02:12:45;;;;;;;11.30;8.25;;;10.10;99.90;;;;;;1865387;76;21088;-74
2021/09/25 02:15:11;;;;;;;10.13;8.00;;;10.00;99.90;;;;;;1858514;76;21104;-75
2021/09/25 02:17:37;;;;;;;10.80;7.45;;;10.00;99.90;;;;;;1856523;76;21097;-75
2021/09/25 02:20:03;;;;;;;16.85;8.40;;;10.00;99.90;;;;;;1858559;76;21174;-74
2021/09/25 02:22:29;;;;;;;12.15;8.18;;;10.00;99.90;;;;;;1871072;75;21502;-74
2021/09/25 02:24:56;;;;;;;10.80;7.90;;;9.90;99.90;;;;;;1865567;76;21601;-74
2021/09/25 02:27:22;;;;;;;11.45;8.15;;;9.90;99.90;;;;;;1862105;76;21422;-74
2021/09/25 02:29:48;;;;;;;10.08;8.45;;;9.90;99.90;;;;;;1858503;76;21088;-74
2021/09/25 02:32:14;;;;;;;13.98;8.70;;;9.90;99.90;;;;;;1874337;76;21562;-75
2021/09/25 02:34:40;;;;;;;10.88;9.00;;;9.90;99.90;;;;;;1863470;76;21143;-74
2021/09/25 02:37:06;;;;;;;10.75;8.58;;;10.00;99.90;;;;;;1858651;76;21092;-75
2021/09/25 02:39:32;;;;;;;16.45;9.13;;;9.90;99.90;;;;;;1860858;76;21186;-75
2021/09/25 02:41:58;;;;;;;12.40;8.78;;;10.00;99.90;;;;;;1861258;76;21097;-75
2021/09/25 02:44:25;;;;;;;10.08;7.53;;;9.90;99.90;;;;;;1858645;76;21088;-76
2021/09/25 02:46:51;;;;;;;13.05;8.78;;;9.90;99.90;;;;;;1858887;76;21128;-76
2021/09/25 02:49:17;;;;;;;11.38;8.53;;;10.00;99.90;;;;;;1858631;76;21060;-76
2021/09/25 02:51:43;;;;;;;11.43;8.33;;;9.90;99.90;;;;;;1862320;76;21166;-75
2021/09/25 02:54:09;;;;;;;10.38;8.45;;;10.00;99.90;;;;;;1865061;76;21162;-76
2021/09/25 02:56:35;;;;;;;8.73;7.83;;;10.00;99.90;;;;;;1858813;76;21096;-76
2021/09/25 02:59:01;;;;;;;11.88;8.20;;;9.90;99.90;;;;;;1867862;76;21288;-75
2021/09/25 03:01:27;;;;;;;11.30;7.85;;;9.90;99.90;;;;;;1868727;76;21139;-76
2021/09/25 03:03:54;;;;;;;13.53;8.23;;;9.90;99.90;;;;;;1863719;76;21083;-75
2021/09/25 03:06:20;;;;;;;13.65;7.58;;;9.80;99.90;;;;;;1853868;76;21088;-75
2021/09/25 03:08:47;;;;;;;10.28;7.90;;;9.70;99.90;;;;;;1863708;75;21089;-76
2021/09/25 03:11:13;;;;;;;8.40;7.30;;;9.70;99.90;;;;;;1863706;76;21151;-75
2021/09/25 03:13:39;;;;;;;15.93;8.45;;;9.70;99.90;;;;;;1868186;76;21084;-75
2021/09/25 03:16:05;;;;;;;12.73;7.58;;;9.80;99.90;;;;;;1859191;76;21162;-75
2021/09/25 03:18:31;;;;;;;13.25;8.05;;;9.70;99.90;;;;;;1867784;75;21158;-75
2021/09/25 03:20:57;;;;;;;12.85;8.33;;;9.70;99.90;;;;;;1853799;76;21097;-75
2021/09/25 03:23:23;;;;;;;8.68;7.47;;;9.60;99.90;;;;;;1853878;76;21057;-76
2021/09/25 03:25:49;;;;;;;9.15;7.37;;;9.60;99.90;;;;;;1858767;76;21166;-76
2021/09/25 03:28:16;;;;;;;9.30;8.18;;;9.60;99.90;;;;;;1858789;75;21084;-76
2021/09/25 03:30:42;;;;;;;10.50;7.30;;;9.50;99.90;;;;;;1865393;76;21088;-75
2021/09/25 03:33:08;;;;;;;13.10;7.72;;;9.60;99.90;;;;;;1863737;76;21108;-75
2021/09/25 03:35:34;;;;;;;13.83;8.05;;;9.60;99.90;;;;;;1858644;76;21061;-75
2021/09/25 03:38:00;;;;;;;13.50;8.15;;;9.60;99.90;;;;;;1866304;76;21173;-75
2021/09/25 03:40:26;;;;;;;15.78;7.75;;;9.60;99.90;;;;;;1863469;76;21157;-75
2021/09/25 03:42:52;;;;;;;10.30;7.87;;;9.60;99.90;;;;;;1853786;76;21154;-75
2021/09/25 03:45:18;;;;;;;10.38;7.35;;;9.60;99.90;;;;;;1858633;76;21092;-76
2021/09/25 03:47:45;;;;;;;11.93;8.25;;;9.60;99.90;;;;;;1859924;76;21092;-75
2021/09/25 03:50:11;;;;;;;10.65;7.40;;;9.60;99.90;;;;;;1864522;76;21062;-75
2021/09/25 03:52:37;;;;;;;10.15;7.60;;;9.50;99.90;;;;;;1872449;76;21150;-75
2021/09/25 03:55:03;;;;;;;10.88;7.95;;;9.50;99.90;;;;;;1864954;76;21096;-75
2021/09/25 03:57:29;;;;;;;13.88;7.65;;;9.50;99.90;;;;;;1862324;76;21150;-75
2021/09/25 03:59:55;;;;;;;12.40;7.55;;;9.40;99.90;;;;;;1868620;76;21097;-76
2021/09/25 04:02:21;;;;;;;8.98;7.58;;;9.50;99.90;;;;;;1858821;75;21066;-76
2021/09/25 04:04:47;;;;;;;11.50;8.35;;;9.40;99.90;;;;;;1853648;76;21234;-76
2021/09/25 04:07:14;;;;;;;10.55;7.37;;;9.50;99.90;;;;;;1863705;76;21092;-75
2021/09/25 04:09:40;;;;;;;10.95;7.58;;;9.50;99.90;;;;;;1858603;76;21096;-75
2021/09/25 04:12:06;;;;;;;10.70;8.05;;;9.40;99.90;;;;;;1863675;75;21170;-75
2021/09/25 04:14:32;;;;;;;10.80;7.12;;;9.40;99.90;;;;;;1861422;76;21100;-75
2021/09/25 04:16:58;;;;;;;10.38;7.53;;;9.40;99.90;;;;;;1865751;75;21593;-75
2021/09/25 04:19:26;;;;;;;10.60;7.35;;;9.30;99.90;;;;;;1853603;76;21520;-75
2021/09/25 04:21:52;;;;;;;11.57;8.33;;;9.30;99.90;;;;;;1858658;76;21161;-75
2021/09/25 04:24:18;;;;;;;11.73;8.55;;;9.20;99.90;;;;;;1858579;76;21065;-75
2021/09/25 04:26:44;;;;;;;11.83;7.85;;;9.30;99.90;;;;;;1853870;76;21264;-75
2021/09/25 04:29:10;;;;;;;9.08;7.05;;;9.30;99.90;;;;;;1868479;76;21289;-75
2021/09/25 04:31:37;;;;;;;9.03;7.37;;;9.20;99.90;;;;;;1863717;76;21096;-75
2021/09/25 04:34:03;;;;;;;10.93;7.60;;;9.30;99.90;;;;;;1863646;76;21132;-75
2021/09/25 04:36:29;;;;;;;9.03;7.35;;;9.30;99.90;;;;;;1863624;76;21089;-75
2021/09/25 04:38:55;;;;;;;8.05;6.95;;;9.20;99.90;;;;;;1858583;76;21531;-75
2021/09/25 04:41:22;;;;;;;8.70;6.83;;;9.20;99.90;;;;;;1858625;76;21179;-76
2021/09/25 04:43:48;;;;;;;8.78;7.87;;;9.10;99.90;;;;;;1863620;76;21166;-75
2021/09/25 04:46:14;;;;;;;9.98;8.45;;;9.10;99.90;;;;;;1863618;76;21092;-75
2021/09/25 04:48:40;;;;;;;11.18;7.60;;;9.20;99.90;;;;;;1853740;76;21054;-76
2021/09/25 04:51:06;;;;;;;8.93;7.15;;;9.20;99.90;;;;;;1868523;76;21092;-75
2021/09/25 04:53:32;;;;;;;11.65;7.53;;;9.20;99.90;;;;;;1863637;76;21076;-76
2021/09/25 04:55:58;;;;;;;15.50;7.95;;;9.10;99.90;;;;;;1863533;76;21359;-75
2021/09/25 04:58:29;;;;;;;12.70;7.90;;;9.20;99.90;;;;;;1863148;76;21175;-76
2021/09/25 05:00:52;;;;;;;8.90;7.60;;;9.00;99.90;;;;;;1853261;76;21077;-76
2021/09/25 05:03:18;;;;;;;10.32;7.72;;;9.10;99.90;;;;;;1869666;75;21158;-76
2021/09/25 05:05:45;;;;;;;11.15;7.85;;;9.20;99.90;;;;;;1867232;76;21092;-75
2021/09/25 05:08:11;;;;;;;8.73;7.28;;;9.10;99.90;;;;;;1863645;76;21100;-75
2021/09/25 05:10:37;;;;;;;9.40;7.30;;;9.10;99.90;;;;;;1863481;76;21175;-76
2021/09/25 05:13:03;;;;;;;8.35;6.97;;;9.10;99.90;;;;;;1870344;76;21053;-76
2021/09/25 05:15:29;;;;;;;8.85;7.45;;;9.10;99.90;;;;;;1856789;76;21148;-76
2021/09/25 05:17:55;;;;;;;7.85;6.37;;;9.00;99.90;;;;;;1868644;76;21527;-76
2021/09/25 05:20:21;;;;;;;11.22;6.97;;;9.10;99.90;;;;;;1858592;76;21527;-76
2021/09/25 05:22:47;;;;;;;8.60;7.42;;;9.00;99.90;;;;;;1863506;76;21590;-76
2021/09/25 05:25:13;;;;;;;10.98;7.40;;;9.00;99.90;;;;;;1870084;75;21061;-77
2021/09/25 05:27:40;;;;;;;13.93;7.92;;;9.00;99.90;;;;;;1866865;76;21094;-77
2021/09/25 05:30:06;;;;;;;12.55;8.23;;;9.10;99.90;;;;;;1866020;76;21166;-76
2021/09/25 05:32:33;;;;;;;9.95;8.73;;;9.10;99.90;;;;;;1865974;76;21088;-77
2021/09/25 05:34:59;;;;;;;11.90;9.48;;;9.00;99.90;;;;;;1853738;76;21093;-77
2021/09/25 05:37:25;;;;;;;13.10;8.90;;;9.00;99.90;;;;;;1858675;76;21171;-78
2021/09/25 05:39:54;;;;;;;12.82;9.28;;;9.10;99.90;;;;;;1861937;76;21093;-78
2021/09/25 05:42:19;;;;;;;13.25;9.45;;;9.20;99.90;;;;;;1857525;76;21080;-78
2021/09/25 05:44:45;;;;;;;17.52;9.10;;;9.10;99.90;;;;;;1854771;76;21088;-78
2021/09/25 05:47:11;;;;;;;14.65;8.78;;;9.10;99.90;;;;;;1868553;75;21626;-78
2021/09/25 05:49:37;;;;;;;13.32;8.58;;;9.20;99.90;;;;;;1858667;76;21159;-79
2021/09/25 05:52:06;;;;;;;15.50;9.03;;;9.20;99.90;;;;;;1863558;76;21092;-80
2021/09/25 05:54:31;;;;;;;11.45;8.68;;;9.20;99.90;;;;;;1853557;76;21146;-80
2021/09/25 05:56:57;;;;;;;9.18;8.13;;;9.20;99.90;;;;;;1853724;76;21096;-79
2021/09/25 05:59:24;;;;;;;14.03;8.28;;;9.30;99.90;;;;;;1858652;76;21088;-80
2021/09/25 06:01:50;;;;;;;12.35;8.05;;;9.20;99.90;;;;;;1863578;76;21093;-77
2021/09/25 06:04:16;;;;;;;12.33;8.60;;;9.20;99.90;;;;;;1863613;76;21154;-76
2021/09/25 06:06:42;;;;;;;13.60;8.83;;;9.20;99.90;;;;;;1863619;76;21549;-77
2021/09/25 06:09:08;;;;;;;10.43;7.92;;;9.30;99.90;;;;;;1858655;76;21092;-76
2021/09/25 06:11:34;;;;;;;10.43;8.30;;;9.40;99.90;;;;;;1863267;76;21090;-74
2021/09/25 06:14:01;;;;;;;9.28;8.05;;;9.30;99.90;;;;;;1853718;76;21061;-77
2021/09/25 06:16:28;;;;;;;9.95;7.30;;;9.40;99.90;;;;;;1863489;76;21084;-78
2021/09/25 06:18:54;;;;;;;9.58;7.67;;;9.50;99.90;;;;;;1863525;75;21107;-77
2021/09/25 06:21:20;;;;;;;8.75;7.00;;;9.50;99.90;;;;;;1859915;76;21081;-76
2021/09/25 06:23:46;;;;;;;8.80;7.17;;;9.50;99.90;;;;;;1862199;76;21100;-76
2021/09/25 06:26:12;;;;;;;8.85;7.65;;;9.70;99.90;;;;;;1860368;75;21057;-75
2021/09/25 06:28:38;;;;;;;14.23;8.58;;;9.80;99.90;;;;;;1861798;75;21096;-73
2021/09/25 06:31:05;;;;;;;12.18;8.35;;;9.70;99.90;;;;;;1860742;76;21516;-76
2021/09/25 06:33:31;;;;;;;9.90;8.55;;;9.70;99.90;;;;;;1863819;76;21488;-76
2021/09/25 06:35:57;;;;;;;11.70;8.63;;;9.80;99.90;;;;;;1856452;76;21511;-75
2021/09/25 06:38:23;;;;;;;15.53;9.53;;;9.80;99.90;;;;;;1861341;76;21057;-78
2021/09/25 06:40:49;;;;;;;14.10;8.95;;;9.90;99.90;;;;;;1865690;76;21092;-76
2021/09/25 06:43:15;;;;;;;9.65;8.60;;;10.00;99.90;;;;;;1861680;76;21216;-77
2021/09/25 06:45:42;;;;;;;10.25;9.10;;;10.10;99.90;;;;;;1863515;76;21197;-77
2021/09/25 06:48:08;;;;;;;13.18;8.93;;;10.30;99.90;;;;;;1860270;76;21104;-77
2021/09/25 06:50:34;;;;;;;11.00;7.60;;;10.40;99.90;;;;;;1863498;76;21065;-77
2021/09/25 06:53:00;;;;;;;16.35;8.20;;;10.50;99.90;;;;;;1858683;76;21150;-76
2021/09/25 06:55:26;;;;;;;16.93;7.47;;;10.50;99.90;;;;;;1867433;76;21104;-77
2021/09/25 06:57:52;;;;;;;11.30;7.33;;;10.70;99.90;;;;;;1872765;76;21224;-76
2021/09/25 07:00:18;;;;;;;10.15;8.23;;;10.70;99.90;;;;;;1868399;76;21079;-77
2021/09/25 07:02:45;;;;;;;7.65;6.85;;;10.80;99.90;;;;;;1863349;76;21100;-76
2021/09/25 07:05:11;;;;;;;12.13;7.50;;;10.90;99.90;;;;;;1869796;75;21089;-74
2021/09/25 07:07:38;;;;;;;12.63;7.47;;;11.00;99.90;;;;;;1864079;76;21169;-76
2021/09/25 07:10:04;;;;;;;8.35;7.50;;;11.10;99.90;;;;;;1859592;76;21226;-76
2021/09/25 07:12:30;;;;;;;14.47;7.58;;;11.10;99.90;;;;;;1869240;76;21057;-76
2021/09/25 07:14:57;;;;;;;12.30;6.97;;;11.20;99.90;;;;;;1864468;76;21069;-78
2021/09/25 07:17:23;;;;;;;9.43;6.75;;;11.30;99.90;;;;;;1859487;75;21088;-75
2021/09/25 07:19:50;;;;;;;8.43;7.25;;;11.50;99.90;;;;;;1858840;76;21104;-76
2021/09/25 07:22:16;;;;;;;9.50;6.55;;;11.50;99.90;;;;;;1863219;76;21187;-81
2021/09/25 07:24:43;;;;;;;10.10;6.33;;;11.50;99.90;;;;;;1860236;76;21214;-77
2021/09/25 07:27:10;;;;;;;9.73;6.92;;;11.70;99.90;;;;;;1874442;76;21060;-73
2021/09/25 07:29:36;;;;;;;13.88;7.08;;;11.80;99.90;;;;;;1859582;76;21084;-76
2021/09/25 07:32:07;;;;;;;13.13;6.92;;;11.90;99.90;;;;;;1865778;76;21524;-74
2021/09/25 07:34:33;;;;;;;8.55;6.60;;;12.00;99.90;;;;;;1864516;76;21057;-70
2021/09/25 07:36:59;;;;;;;7.58;6.70;;;12.20;99.90;;;;;;1862853;75;21103;-77
2021/09/25 07:39:26;;;;;;;7.10;6.40;;;12.20;99.90;;;;;;1861234;76;21154;-75
2021/09/25 07:41:54;;;;;;;6.72;6.03;;;12.30;99.90;;;;;;1872229;76;21096;-75
2021/09/25 07:44:20;;;;;;;11.53;5.97;;;12.40;99.90;;;;;;1859081;76;21159;-76
2021/09/25 07:46:46;;;;;;;10.90;5.60;;;12.50;99.90;;;;;;1858944;75;21084;-76
2021/09/25 07:49:13;;;;;;;9.15;6.83;;;12.60;99.90;;;;;;1854590;76;21178;-78
2021/09/25 07:51:41;;;;;;;8.45;6.53;;;12.70;99.90;;;;;;1860483;76;21065;-82
2021/09/25 07:54:07;;;;;;;10.20;6.70;;;12.80;99.90;;;;;;1864077;76;21178;-80
2021/09/25 07:56:33;;;;;;;7.80;6.15;;;13.00;99.90;;;;;;1864173;76;21159;-76
2021/09/25 07:58:59;;;;;;;7.50;5.60;;;13.20;99.90;;;;;;1863775;76;21163;-76
2021/09/25 08:01:25;;;;;;;7.25;5.90;;;13.30;99.90;;;;;;1861996;76;21088;-78
2021/09/25 08:03:52;;;;;;;8.53;5.72;;;13.60;99.90;;;;;;1868713;76;21092;-76
2021/09/25 08:06:19;;;;;;;8.03;6.08;;;13.90;99.90;;;;;;1858758;76;21167;-75
2021/09/25 08:08:45;;;;;;;11.53;5.92;;;13.90;99.90;;;;;;1863652;76;21598;-75
2021/09/25 08:11:11;;;;;;;8.70;5.47;;;14.20;99.90;;;;;;1873479;76;21571;-75
2021/09/25 08:13:37;;;;;;;6.47;5.35;;;14.50;99.90;;;;;;1861536;76;21088;-75
2021/09/25 08:16:03;;;;;;;7.03;5.30;;;15.00;99.90;;;;;;1858680;76;21097;-75
2021/09/25 08:18:30;;;;;;;7.47;4.62;;;15.30;99.90;;;;;;1865375;75;21158;-74
2021/09/25 08:20:56;;;;;;;19.12;5.10;;;15.60;99.90;;;;;;1862144;76;21162;-75
2021/09/25 08:23:22;;;;;;;7.17;5.22;;;15.70;99.90;;;;;;1860068;76;21151;-75
2021/09/25 08:25:48;;;;;;;11.25;4.95;;;16.10;99.90;;;;;;1863638;76;21096;-75
2021/09/25 08:28:14;;;;;;;6.78;5.20;;;16.50;99.90;;;;;;1863718;75;21195;-75
2021/09/25 08:30:40;;;;;;;8.03;5.30;;;16.50;99.90;;;;;;1863064;76;21092;-74
2021/09/25 08:33:06;;;;;;;6.72;4.42;;;16.80;99.90;;;;;;1868271;76;21150;-74
2021/09/25 08:35:32;;;;;;;4.70;4.22;;;17.00;99.90;;;;;;1873356;76;21097;-74
2021/09/25 08:37:59;;;;;;;5.87;4.00;;;17.10;99.90;;;;;;1868621;76;21057;-74
2021/09/25 08:40:25;;;;;;;6.78;4.33;;;17.30;99.90;;;;;;1863607;76;21091;-74
2021/09/25 08:42:51;;;;;;;8.05;4.67;;;17.30;99.90;;;;;;1853850;76;21182;-75
2021/09/25 08:45:17;;;;;;;5.78;5.08;;;17.40;99.90;;;;;;1853868;76;21500;-75
2021/09/25 08:47:43;;;;;;;4.70;4.28;;;17.50;99.90;;;;;;1868556;75;21489;-75
2021/09/25 08:50:09;;;;;;;4.55;4.15;;;17.70;99.90;;;;;;1864374;76;21578;-74
2021/09/25 08:52:35;;;;;;;5.10;4.58;;;18.00;99.90;;;;;;1859612;76;21516;-73
2021/09/25 08:55:01;;;;;;;5.40;4.30;;;18.50;99.90;;;;;;1859325;75;21618;-74
2021/09/25 08:57:28;;;;;;;6.30;4.85;;;18.90;99.90;;;;;;1864920;76;21457;-73
2021/09/25 08:59:55;;;;;;;10.63;4.40;;;18.70;99.90;;;;;;1863116;76;21092;-75
2021/09/25 09:02:21;;;;;;;10.10;4.65;;;18.50;99.90;;;;;;1863928;76;21175;-74
2021/09/25 09:04:49;;;;;;;4.67;3.83;;;18.60;99.90;;;;;;1864176;76;21088;-74
2021/09/25 09:07:15;;;;;;;6.78;4.25;;;18.80;99.90;;;;;;1854232;76;21101;-74
2021/09/25 09:09:42;;;;;;;3.87;3.47;;;19.00;99.90;;;;;;1866361;76;21154;-73
2021/09/25 09:12:08;;;;;;;5.60;3.75;;;19.70;99.90;;;;;;1861152;76;21586;-73
2021/09/25 09:14:34;;;;;;;5.33;3.90;;;20.10;99.90;;;;;;1859424;76;21574;-74
2021/09/25 09:17:00;;;;;;;4.90;3.50;;;20.00;99.90;;;;;;1868627;76;21524;-75
2021/09/25 09:19:27;;;;;;;5.20;3.67;;;19.50;99.90;;;;;;1859080;76;21154;-74
2021/09/25 09:21:53;;;;;;;4.62;3.95;;;19.60;99.90;;;;;;1862428;76;21586;-74
2021/09/25 09:24:19;;;;;;;8.78;4.33;;;20.20;99.90;;;;;;1864044;75;21590;-74
2021/09/25 09:26:46;;;;;;;5.25;3.90;;;20.50;99.90;;;;;;1860188;76;21216;-75
2021/09/25 09:29:13;;;;;;;5.28;4.20;;;20.80;99.90;;;;;;1859140;76;21218;-73
2021/09/25 09:31:39;;;;;;;3.72;3.42;;;20.40;99.90;;;;;;1859325;75;21061;-75
2021/09/25 09:34:05;;;;;;;5.20;4.17;;;20.10;99.90;;;;;;1863669;76;21084;-74
2021/09/25 09:36:32;;;;;;;6.85;4.40;;;20.20;99.90;;;;;;1854499;76;21093;-76
2021/09/25 09:38:58;;;;;;;6.47;4.08;;;20.40;99.90;;;;;;1864064;76;21104;-74
2021/09/25 09:41:24;;;;;;;4.15;3.65;;;20.50;99.90;;;;;;1859185;76;21236;-75
2021/09/25 09:43:50;;;;;;;8.28;4.08;;;21.10;99.90;;;;;;1863869;76;21084;-74
2021/09/25 09:46:17;;;;;;;3.67;3.37;;;21.00;99.90;;;;;;1854292;76;21092;-75
2021/09/25 09:48:43;;;;;;;5.47;3.62;;;21.60;99.90;;;;;;1859000;76;21101;-74
2021/09/25 09:51:09;;;;;;;15.88;3.72;;;21.80;99.90;;;;;;1868833;76;21083;-75
2021/09/25 09:53:35;;;;;;;7.62;3.35;;;22.30;99.90;;;;;;1859100;76;21096;-75
2021/09/25 09:56:01;;;;;;;5.53;3.30;;;22.80;99.90;;;;;;1855332;75;21089;-75
2021/09/25 09:58:27;;;;;;;5.08;3.33;;;22.50;99.90;;;;;;1873636;75;21096;-75
2021/09/25 10:00:53;;;;;;;5.80;3.15;;;22.00;99.90;;;;;;1858795;76;21057;-72
2021/09/25 10:03:19;;;;;;;4.72;3.60;;;22.10;99.90;;;;;;1861811;76;21461;-74
2021/09/25 10:05:46;;;;;;;2.83;2.62;;;22.30;99.90;;;;;;1858826;76;21581;-73
2021/09/25 10:08:12;;;;;;;3.85;3.35;;;22.40;99.90;;;;;;1858947;76;21202;-73
2021/09/25 10:10:39;;;;;;;3.87;3.12;;;22.30;99.90;;;;;;1858869;76;21511;-74
2021/09/25 10:13:05;;;;;;;3.15;2.83;;;22.90;99.90;;;;;;1863828;76;21566;-75
2021/09/25 10:15:32;;;;;;;3.60;2.85;;;22.70;99.90;;;;;;1853724;76;21469;-75
2021/09/25 10:17:58;;;;;;;5.25;2.87;;;22.40;99.90;;;;;;1862436;75;21166;-74
2021/09/25 10:20:26;;;;;;;4.78;3.12;;;22.60;99.90;;;;;;1859679;76;21238;-75
2021/09/25 10:22:52;;;;;;;4.83;3.08;;;22.60;99.90;;;;;;1868806;76;21108;-74
2021/09/25 10:25:19;;;;;;;3.12;2.80;;;23.10;99.90;;;;;;1858563;76;21104;-74
2021/09/25 10:27:45;;;;;;;6.05;3.42;;;23.60;99.90;;;;;;1858859;76;21065;-75
2021/09/25 10:30:11;;;;;;;4.60;2.75;;;23.40;99.90;;;;;;1868499;75;21088;-75
2021/09/25 10:32:38;;;;;;;5.83;3.58;;;23.10;99.90;;;;;;1868708;75;21151;-75
2021/09/25 10:35:04;;;;;;;4.33;2.52;;;23.50;99.90;;;;;;1868692;75;21162;-75
2021/09/25 10:37:30;;;;;;;5.90;2.67;;;23.80;99.90;;;;;;1869494;75;21162;-74
2021/09/25 10:39:56;;;;;;;3.83;2.60;;;24.30;99.90;;;;;;1862764;76;21162;-74
2021/09/25 10:42:22;;;;;;;2.67;2.40;;;24.70;99.90;;;;;;1863690;76;21099;-75
2021/09/25 10:44:49;;;;;;;2.80;2.45;;;25.30;99.90;;;;;;1863747;76;21166;-75
2021/09/25 10:47:15;;;;;;;3.35;2.40;;;25.40;99.90;;;;;;1858724;76;21092;-74
2021/09/25 10:49:41;;;;;;;2.83;2.20;;;25.20;99.90;;;;;;1863803;75;21061;-75
2021/09/25 10:52:07;;;;;;;9.03;2.87;;;25.00;99.90;;;;;;1863599;76;21099;-72
2021/09/25 10:54:33;;;;;;;2.45;2.25;;;24.40;99.90;;;;;;1863675;76;21092;-75
2021/09/25 10:56:59;;;;;;;2.25;2.02;;;24.80;99.90;;;;;;1864510;75;21103;-74
2021/09/25 10:59:25;;;;;;;3.02;2.30;;;25.50;99.90;;;;;;1860388;75;21053;-75
2021/09/25 11:01:52;;;;;;;2.00;1.85;;;26.00;99.90;;;;;;1868701;76;21092;-74
2021/09/25 11:04:18;;;;;;;2.35;2.00;;;26.00;99.90;;;;;;1861814;76;21081;-74
2021/09/25 11:06:45;;;;;;;2.22;1.80;;;26.60;99.90;;;;;;1859039;76;21178;-74
2021/09/25 11:09:12;;;;;;;2.30;1.90;;;26.50;99.90;;;;;;1858936;76;21166;-74
2021/09/25 11:11:43;;;;;;;5.08;1.92;;;26.20;99.90;;;;;;1856591;76;21100;-74
2021/09/25 11:14:06;;;;;;;1.70;1.60;;;26.20;99.90;;;;;;1858425;76;21092;-75
2021/09/25 11:16:32;;;;;;;3.37;1.85;;;26.80;99.90;;;;;;1863882;76;21081;-74
2021/09/25 11:18:58;;;;;;;2.20;1.90;;;26.90;99.90;;;;;;1853955;76;21092;-73
2021/09/25 11:21:24;;;;;;;4.72;2.35;;;27.40;99.90;;;;;;1863803;76;21092;-73
2021/09/25 11:23:50;;;;;;;3.10;1.85;;;27.40;99.90;;;;;;1853900;77;21096;-74
2021/09/25 11:26:16;;;;;;;2.05;1.90;;;27.00;99.90;;;;;;1862403;76;21053;-74
2021/09/25 11:28:45;;;;;;;12.98;2.00;;;27.20;99.90;;;;;;1860069;76;21096;-73
2021/09/25 11:31:10;;;;;;;2.65;1.87;;;27.30;99.90;;;;;;1853678;76;21595;-74
2021/09/25 11:33:36;;;;;;;2.55;1.72;;;27.60;99.90;;;;;;1863925;76;21601;-73
2021/09/25 11:36:02;;;;;;;1.98;1.67;;;28.10;99.90;;;;;;1859325;76;21089;-73
2021/09/25 11:38:28;;;;;;;5.33;1.60;;;28.60;99.90;;;;;;1849228;76;21088;-73
2021/09/25 11:40:55;;;;;;;1.75;1.50;;;28.90;99.90;;;;;;1863163;75;21088;-74
2021/09/25 11:43:21;;;;;;;1.62;1.52;;;29.30;99.90;;;;;;1863997;76;21088;-74
2021/09/25 11:45:47;;;;;;;1.72;1.50;;;29.30;99.90;;;;;;1868249;76;21061;-75
2021/09/25 11:48:13;;;;;;;3.17;1.82;;;29.20;99.90;;;;;;1859465;76;21150;-73
2021/09/25 11:50:39;;;;;;;2.85;2.00;;;29.20;99.90;;;;;;1867801;76;21182;-73
2021/09/25 11:53:05;;;;;;;1.60;1.50;;;28.20;99.90;;;;;;1853818;76;21088;-74
2021/09/25 11:55:31;;;;;;;2.77;1.85;;;28.20;99.90;;;;;;1864976;75;21065;-75
2021/09/25 11:57:57;;;;;;;2.65;2.10;;;28.60;99.90;;;;;;1868561;75;21053;-75
2021/09/25 12:00:24;;;;;;;3.05;1.60;;;28.90;99.90;;;;;;1863174;76;21578;-74
2021/09/25 12:02:50;;;;;;;1.70;1.60;;;28.70;99.90;;;;;;1867602;76;21565;-75
2021/09/25 12:05:16;;;;;;;4.25;1.70;;;29.40;98.90;;;;;;1863520;76;21532;-74
2021/09/25 12:07:42;;;;;;;1.50;1.40;;;29.90;98.40;;;;;;1855206;76;21457;-74
2021/09/25 12:10:08;;;;;;;2.00;1.72;;;29.40;98.80;;;;;;1871902;75;21065;-75
2021/09/25 12:12:34;;;;;;;3.52;1.80;;;29.30;98.70;;;;;;1858540;76;21219;-74
2021/09/25 12:15:09;;;;;;;2.35;1.60;;;29.80;98.50;;;;;;1863828;76;21188;-75
2021/09/25 12:17:28;;;;;;;2.35;2.02;;;29.70;98.80;;;;;;1858800;76;21470;-74
2021/09/25 12:19:54;;;;;;;3.87;1.75;;;29.80;97.00;;;;;;1863759;76;21148;-73
2021/09/25 12:22:20;;;;;;;2.45;2.12;;;29.60;97.50;;;;;;1858954;76;21084;-74
2021/09/25 12:24:47;;;;;;;4.15;1.98;;;29.40;97.30;;;;;;1863693;76;21096;-73
2021/09/25 12:27:13;;;;;;;4.35;1.47;;;30.40;95.80;;;;;;1868802;76;21108;-73
2021/09/25 12:29:39;;;;;;;3.27;1.50;;;31.20;94.20;;;;;;1863737;75;21092;-72
2021/09/25 12:32:05;;;;;;;2.37;1.47;;;31.60;93.10;;;;;;1863704;75;21084;-73
2021/09/25 12:34:31;;;;;;;1.85;1.22;;;31.30;93.00;;;;;;1868720;76;21100;-75
2021/09/25 12:36:59;;;;;;;1.52;1.42;;;30.90;92.30;;;;;;1853947;76;21196;-74
2021/09/25 12:39:25;;;;;;;1.72;1.27;;;31.20;91.50;;;;;;1854006;76;21449;-75